Etusivu
METAR-TAF:

METAR-TAF

Lentoasemat :

Orange_County_Airport

Orange, Texas, Yhdysvallat

Leveyspiiri: 30-04-09N, Pituuspiiri: 093-48-13W, korkeus merenpinnasta: 4 m

Tämänhetkinen sää

Tämä raportti tehtiin 7 minuuttia sitten, kello 17.15 UTC
Tuuli 3 kn idästä
Lämpötila 5°C
Kosteus 48%
Ilmanpaine 1027 hPa
Näkyvyys: 16.1 km
selkeää

METAR: KORG 131715Z AUTO 10003KT 10SM CLR 05/M05 A3033 RMK AO2 T00511049

Aika: 11:22 (17:22 UTC)


TAF: puuttuu

Säähavainnot ja -ennusteet yli 4000 lentoasemalta (METAR- ja TAF-raportit).

Käytössä olevat sääasemat on merkitty karttaan keltaisilla ja punaisilla pisteillä.

Aseta hiiri pisteen päälle nähdäksesi sääaseman nimen.

Klikkaa sitten nähdäksesi säähavainnot ja -ennusteet.

Kartan vaihtaminen: klikkaa mustalla rastilla varustettuja vihreitä pisteitä, niin voit zoomata sisään; viivalla varustettua vihreää pistettä, niin voit zoomata ulos tai vihreitä nuolia, niin pääset viereisille kartoille.


METAR-TAF: